Time;durP1;ratioP1;P1;durP2;ratioP2;P2;SDS_P1;SDS_P2;PMS_P1;PMS_P2;Temp;Humidity;BMP_temperature;BMP_pressure;BME280_temperature;BME280_humidity;BME280_pressure;Samples;Min_cycle;Max_cycle;Signal;HPM_P1;HPM_P2
2022/04/06 00:01:18;;;;;;;0.10;0.10;;;10.10;99.90;;;;;;4974775;28;20042;-62
2022/04/06 00:03:44;;;;;;;0.10;0.10;;;10.20;99.90;;;;;;4975105;28;20491;-62
2022/04/06 00:06:10;;;;;;;0.08;0.08;;;10.20;99.90;;;;;;4974939;28;20471;-62
2022/04/06 00:08:36;;;;;;;0.25;0.25;;;10.20;99.90;;;;;;4974589;28;20039;-62
2022/04/06 00:11:02;;;;;;;0.00;0.00;;;10.20;99.90;;;;;;4974646;28;20035;-62
2022/04/06 00:13:29;;;;;;;2.25;0.75;;;10.20;99.90;;;;;;4973614;28;20149;-62
2022/04/06 00:15:55;;;;;;;0.35;0.25;;;10.20;99.90;;;;;;4973674;28;20034;-62
2022/04/06 00:18:21;;;;;;;0.25;0.25;;;10.20;99.90;;;;;;4974394;28;20030;-62
2022/04/06 00:20:47;;;;;;;0.30;0.30;;;10.20;99.90;;;;;;4974593;28;20034;-62
2022/04/06 00:23:14;;;;;;;0.20;0.20;;;10.20;99.90;;;;;;4974451;28;20035;-62
2022/04/06 00:25:40;;;;;;;1.05;0.57;;;10.20;99.90;;;;;;4974363;28;20469;-62
2022/04/06 00:28:06;;;;;;;0.00;0.00;;;10.20;99.90;;;;;;4972565;28;20398;-62
2022/04/06 00:30:34;;;;;;;1.40;1.30;;;10.20;99.90;;;;;;4974328;28;20070;-62
2022/04/06 00:33:00;;;;;;;0.20;0.20;;;10.20;99.90;;;;;;4974606;28;20034;-62
2022/04/06 00:35:32;;;;;;;0.60;0.60;;;10.20;99.90;;;;;;4973083;28;20031;-62
2022/04/06 00:38:04;;;;;;;0.30;0.30;;;10.20;99.90;;;;;;4973180;28;20029;-62
2022/04/06 00:40:33;;;;;;;0.10;0.10;;;10.20;99.90;;;;;;4974479;28;20118;-62
2022/04/06 00:42:59;;;;;;;1.95;0.82;;;10.20;99.90;;;;;;4972873;28;20117;-62
2022/04/06 00:45:25;;;;;;;4.57;2.53;;;10.30;99.90;;;;;;4973964;28;20034;-62
2022/04/06 00:47:53;;;;;;;0.15;0.15;;;10.30;99.90;;;;;;4972428;28;20027;-62
2022/04/06 00:50:20;;;;;;;0.75;0.75;;;10.20;99.90;;;;;;4986880;23;20053;-64
2022/04/06 00:52:48;;;;;;;0.15;0.15;;;10.20;99.90;;;;;;4972586;28;20026;-64
2022/04/06 00:55:15;;;;;;;0.45;0.45;;;10.20;99.90;;;;;;4972933;28;20043;-63
2022/04/06 00:57:41;;;;;;;1.95;1.35;;;10.20;99.90;;;;;;4973979;28;20027;-64
2022/04/06 01:00:10;;;;;;;0.10;0.10;;;10.30;99.90;;;;;;4972982;28;20035;-64
2022/04/06 01:02:38;;;;;;;1.17;1.13;;;10.30;99.90;;;;;;4973750;28;20126;-64
2022/04/06 01:05:05;;;;;;;1.33;1.23;;;10.20;99.90;;;;;;4973084;28;20072;-64
2022/04/06 01:07:35;;;;;;;0.20;0.20;;;10.30;99.90;;;;;;4978302;28;20113;-64
2022/04/06 01:10:01;;;;;;;0.53;0.53;;;10.30;99.90;;;;;;4981018;28;20060;-63
2022/04/06 01:12:29;;;;;;;0.43;0.43;;;10.30;99.90;;;;;;4990801;28;20292;-64
2022/04/06 01:14:55;;;;;;;0.25;0.25;;;10.30;99.90;;;;;;4988697;28;20467;-64
2022/04/06 01:17:30;;;;;;;0.10;0.10;;;10.30;99.90;;;;;;4956081;28;20065;-64
2022/04/06 01:20:00;;;;;;;0.73;0.73;;;10.20;99.90;;;;;;4972678;28;20053;-64
2022/04/06 01:22:27;;;;;;;0.65;0.32;;;10.30;99.90;;;;;;4956535;28;20034;-64
2022/04/06 01:24:53;;;;;;;2.25;1.92;;;10.30;99.90;;;;;;4986620;28;20475;-61
2022/04/06 01:27:19;;;;;;;0.30;0.30;;;10.30;99.90;;;;;;4992566;28;20034;-64
2022/04/06 01:29:47;;;;;;;0.20;0.20;;;10.30;99.90;;;;;;4991606;28;20026;-64
2022/04/06 01:32:22;;;;;;;0.10;0.10;;;10.30;99.90;;;;;;4992527;28;20501;-64
2022/04/06 01:34:50;;;;;;;0.47;0.47;;;10.30;99.90;;;;;;4991434;28;20031;-64
2022/04/06 01:37:17;;;;;;;2.80;1.55;;;10.30;99.90;;;;;;4990982;28;20027;-61
2022/04/06 01:39:45;;;;;;;0.35;0.35;;;10.30;99.90;;;;;;4991272;28;20026;-61
2022/04/06 01:42:15;;;;;;;2.25;0.70;;;10.40;99.90;;;;;;4976032;28;20088;-62
2022/04/06 01:44:44;;;;;;;0.10;0.10;;;10.40;99.90;;;;;;4973398;28;20502;-62
2022/04/06 01:47:11;;;;;;;0.00;0.00;;;10.30;99.90;;;;;;4972679;28;20042;-62
2022/04/06 01:52:22;;;;;;;0.20;0.20;;;10.40;99.90;;;;;;4972265;28;20067;-62
2022/04/06 01:54:56;;;;;;;0.03;0.03;;;10.30;99.90;;;;;;4971878;28;20041;-62
2022/04/06 01:57:23;;;;;;;1.02;0.90;;;10.30;99.90;;;;;;4972467;28;20027;-62
2022/04/06 01:59:50;;;;;;;0.00;0.00;;;10.30;99.90;;;;;;4971464;28;20039;-62
2022/04/06 02:02:19;;;;;;;0.40;0.40;;;10.30;99.90;;;;;;4971028;28;20035;-62
2022/04/06 02:04:45;;;;;;;1.48;1.05;;;10.30;99.90;;;;;;4971420;28;20133;-62
2022/04/06 02:07:13;;;;;;;0.68;0.68;;;10.30;99.90;;;;;;4972561;28;20109;-62
2022/04/06 02:09:39;;;;;;;0.55;0.38;;;10.30;99.90;;;;;;4971370;28;20049;-62
2022/04/06 02:12:13;;;;;;;0.68;0.68;;;10.20;99.90;;;;;;4971450;28;20034;-62
2022/04/06 02:14:41;;;;;;;0.10;0.10;;;10.20;99.90;;;;;;4974380;28;20040;-62
2022/04/06 02:17:07;;;;;;;0.00;0.00;;;10.20;99.90;;;;;;4990482;28;20033;-62
2022/04/06 02:19:36;;;;;;;0.52;0.52;;;10.20;99.90;;;;;;4991731;28;20104;-62
2022/04/06 02:22:04;;;;;;;0.22;0.22;;;10.20;99.90;;;;;;4991949;28;20037;-62
2022/04/06 02:24:31;;;;;;;0.40;0.40;;;10.20;99.90;;;;;;4991989;28;20257;-62
2022/04/06 02:26:57;;;;;;;0.40;0.40;;;10.20;99.90;;;;;;4991275;28;20073;-62
2022/04/06 02:29:23;;;;;;;0.40;0.40;;;10.20;99.90;;;;;;4990183;28;20030;-62
2022/04/06 02:31:49;;;;;;;0.40;0.40;;;10.20;99.90;;;;;;4992103;28;20496;-62
2022/04/06 02:34:15;;;;;;;0.10;0.10;;;10.20;99.90;;;;;;4991583;28;20026;-62
2022/04/06 02:36:43;;;;;;;0.20;0.20;;;10.20;99.90;;;;;;4991756;28;20030;-63
2022/04/06 02:39:09;;;;;;;0.28;0.28;;;10.20;99.90;;;;;;4990354;28;20088;-62
2022/04/06 02:41:35;;;;;;;1.20;1.10;;;10.20;99.90;;;;;;4990374;28;20466;-62
2022/04/06 02:44:01;;;;;;;0.50;0.50;;;10.30;99.90;;;;;;4991405;28;20619;-62
2022/04/06 02:46:27;;;;;;;0.08;0.08;;;10.20;99.90;;;;;;4991447;28;20463;-62
2022/04/06 02:48:53;;;;;;;0.00;0.00;;;10.20;99.90;;;;;;4991062;28;20081;-62
2022/04/06 02:51:18;;;;;;;0.10;0.10;;;10.30;99.90;;;;;;4991170;28;20133;-62
2022/04/06 02:53:44;;;;;;;0.60;0.60;;;10.30;99.90;;;;;;4974106;28;20129;-62
2022/04/06 02:56:10;;;;;;;0.00;0.00;;;10.30;99.90;;;;;;4990094;28;20109;-63
2022/04/06 02:58:35;;;;;;;2.55;1.35;;;10.30;99.90;;;;;;4989822;28;20474;-62
2022/04/06 03:01:01;;;;;;;0.10;0.10;;;10.20;99.90;;;;;;4991530;28;20158;-62
2022/04/06 03:03:27;;;;;;;0.30;0.30;;;10.20;99.90;;;;;;4989715;28;20085;-63
2022/04/06 03:05:52;;;;;;;0.85;0.65;;;10.20;99.90;;;;;;4990021;28;20399;-64
2022/04/06 03:08:21;;;;;;;0.13;0.13;;;10.20;99.90;;;;;;4990838;28;20069;-64
2022/04/06 03:10:47;;;;;;;0.03;0.03;;;10.20;99.90;;;;;;4989806;28;20030;-64
2022/04/06 03:13:13;;;;;;;0.00;0.00;;;10.30;99.90;;;;;;4990793;28;20022;-64
2022/04/06 03:15:38;;;;;;;4.85;0.65;;;10.20;99.90;;;;;;4979331;28;20053;-64
2022/04/06 03:18:04;;;;;;;0.00;0.00;;;10.20;99.90;;;;;;4970104;28;20493;-64
2022/04/06 03:20:31;;;;;;;0.20;0.20;;;10.20;99.90;;;;;;4971997;28;20031;-61
2022/04/06 03:22:57;;;;;;;1.17;0.70;;;10.20;99.90;;;;;;4971774;28;20097;-64
2022/04/06 03:25:23;;;;;;;0.00;0.00;;;10.20;99.90;;;;;;4971786;28;20477;-64
2022/04/06 03:27:49;;;;;;;0.00;0.00;;;10.20;99.90;;;;;;4971367;28;20038;-64
2022/04/06 03:30:15;;;;;;;0.00;0.00;;;10.20;99.90;;;;;;4971457;28;20058;-64
2022/04/06 03:32:41;;;;;;;0.40;0.40;;;10.20;99.90;;;;;;4971435;28;20053;-64
2022/04/06 03:35:08;;;;;;;0.00;0.00;;;10.20;99.90;;;;;;4954157;28;20035;-64
2022/04/06 03:37:34;;;;;;;0.40;0.40;;;10.20;99.90;;;;;;4954187;28;20501;-64
2022/04/06 03:40:01;;;;;;;0.00;0.00;;;10.20;99.90;;;;;;4971412;28;20116;-64
2022/04/06 03:42:27;;;;;;;0.50;0.50;;;10.20;99.90;;;;;;4969630;28;20034;-64
2022/04/06 03:44:53;;;;;;;0.13;0.13;;;10.20;99.90;;;;;;4971656;28;20037;-64
2022/04/06 03:47:19;;;;;;;0.82;0.80;;;10.20;99.90;;;;;;4970629;28;20034;-64
2022/04/06 03:49:45;;;;;;;4.47;0.90;;;10.20;99.90;;;;;;4982593;28;20033;-65
2022/04/06 03:52:10;;;;;;;4.28;0.65;;;10.10;99.90;;;;;;4981429;28;20030;-64
2022/04/06 03:54:36;;;;;;;0.80;0.75;;;10.10;99.90;;;;;;4969637;28;20058;-64
2022/04/06 03:57:02;;;;;;;0.10;0.10;;;10.10;99.90;;;;;;4969583;28;20058;-64
2022/04/06 03:59:28;;;;;;;0.63;0.63;;;10.10;99.90;;;;;;4969688;28;20041;-63
2022/04/06 04:01:55;;;;;;;1.08;1.02;;;10.10;99.90;;;;;;4971125;28;20413;-63
2022/04/06 04:04:20;;;;;;;0.15;0.15;;;10.10;99.90;;;;;;4970666;28;20150;-64
2022/04/06 04:06:46;;;;;;;0.10;0.10;;;10.10;99.90;;;;;;4970915;28;20489;-64
2022/04/06 04:09:12;;;;;;;0.35;0.35;;;10.10;99.90;;;;;;4969720;28;20514;-64
2022/04/06 04:11:37;;;;;;;0.00;0.00;;;10.10;99.90;;;;;;4970783;28;20101;-64
2022/04/06 04:14:03;;;;;;;0.75;0.75;;;10.20;99.90;;;;;;4970947;28;20114;-64
2022/04/06 04:16:29;;;;;;;0.00;0.00;;;10.20;99.90;;;;;;4973804;28;20035;-64
2022/04/06 04:18:55;;;;;;;0.00;0.00;;;10.20;99.90;;;;;;4970909;28;20027;-63
2022/04/06 04:21:32;;;;;;;0.10;0.10;;;10.20;99.90;;;;;;4969492;28;20034;-63
2022/04/06 04:24:03;;;;;;;0.70;0.70;;;10.20;99.90;;;;;;4970595;28;20030;-63
2022/04/06 04:26:30;;;;;;;0.20;0.20;;;10.20;99.90;;;;;;4972034;28;20045;-63
2022/04/06 04:28:56;;;;;;;0.10;0.10;;;10.20;99.90;;;;;;4973074;28;20039;-63
2022/04/06 04:31:22;;;;;;;0.05;0.05;;;10.20;99.90;;;;;;4973913;28;20023;-63
2022/04/06 04:33:51;;;;;;;0.20;0.20;;;10.20;99.90;;;;;;4973041;28;20022;-62
2022/04/06 04:36:17;;;;;;;0.57;0.52;;;10.20;99.90;;;;;;4972935;28;20031;-63
2022/04/06 04:38:43;;;;;;;0.28;0.28;;;10.10;99.90;;;;;;4972759;28;20471;-63
2022/04/06 04:41:09;;;;;;;0.13;0.13;;;10.10;99.90;;;;;;4974333;28;20042;-63
2022/04/06 04:43:36;;;;;;;0.60;0.60;;;10.10;99.90;;;;;;4974077;28;20045;-63
2022/04/06 04:46:04;;;;;;;0.22;0.22;;;10.10;99.90;;;;;;4972545;28;20030;-63
2022/04/06 04:48:30;;;;;;;0.15;0.15;;;10.10;99.90;;;;;;4973463;28;20395;-63
2022/04/06 04:50:56;;;;;;;0.10;0.10;;;10.20;99.90;;;;;;4972271;28;20059;-63
2022/04/06 04:53:22;;;;;;;0.15;0.15;;;10.20;99.90;;;;;;4972496;28;20065;-62
2022/04/06 04:55:48;;;;;;;0.75;0.63;;;10.20;99.90;;;;;;4972785;28;20022;-63
2022/04/06 04:58:14;;;;;;;0.40;0.25;;;10.20;99.90;;;;;;4972332;28;20399;-62
2022/04/06 05:00:40;;;;;;;0.00;0.00;;;10.10;99.90;;;;;;4972652;28;20066;-63
2022/04/06 05:03:07;;;;;;;0.25;0.25;;;10.10;99.90;;;;;;4973700;28;20042;-63
2022/04/06 05:05:33;;;;;;;0.00;0.00;;;10.10;99.90;;;;;;4973348;28;20399;-63
2022/04/06 05:07:59;;;;;;;1.10;0.77;;;10.10;99.90;;;;;;4973584;28;20042;-62
2022/04/06 05:10:26;;;;;;;0.15;0.15;;;10.10;99.90;;;;;;4973372;28;20049;-62
2022/04/06 05:12:52;;;;;;;0.50;0.50;;;10.10;99.90;;;;;;4972374;28;20027;-63
2022/04/06 05:15:19;;;;;;;0.00;0.00;;;10.10;99.90;;;;;;4975311;28;20027;-62
2022/04/06 05:17:45;;;;;;;0.20;0.20;;;10.00;99.90;;;;;;4971839;28;20054;-62
2022/04/06 05:20:12;;;;;;;0.38;0.38;;;10.10;99.90;;;;;;4971800;28;20023;-62
2022/04/06 05:22:38;;;;;;;0.13;0.13;;;10.00;99.90;;;;;;4973463;28;20042;-62
2022/04/06 05:25:05;;;;;;;3.65;2.17;;;10.00;99.90;;;;;;4972352;28;20164;-63
2022/04/06 05:27:31;;;;;;;3.92;1.05;;;10.10;99.90;;;;;;4972978;28;20077;-62
2022/04/06 05:29:57;;;;;;;2.00;0.75;;;10.00;99.90;;;;;;4973412;28;20049;-63
2022/04/06 05:32:23;;;;;;;0.50;0.50;;;10.10;99.90;;;;;;4971888;28;20039;-62
2022/04/06 05:34:49;;;;;;;1.33;0.98;;;10.10;99.90;;;;;;4973180;28;20442;-63
2022/04/06 05:37:15;;;;;;;0.10;0.10;;;10.10;99.90;;;;;;4972286;28;20031;-63
2022/04/06 05:39:40;;;;;;;0.10;0.10;;;10.10;99.90;;;;;;4971621;28;20155;-61
2022/04/06 05:42:06;;;;;;;0.50;0.50;;;10.10;99.90;;;;;;4972964;28;20031;-62
2022/04/06 05:44:34;;;;;;;0.30;0.30;;;10.10;99.90;;;;;;4971962;28;20383;-61
2022/04/06 05:47:00;;;;;;;0.20;0.20;;;10.10;99.90;;;;;;4987308;28;20034;-61
2022/04/06 05:49:26;;;;;;;0.17;0.17;;;10.10;99.90;;;;;;4972726;28;20078;-61
2022/04/06 05:51:52;;;;;;;0.10;0.10;;;10.10;99.90;;;;;;4972941;28;20150;-62
2022/04/06 05:54:18;;;;;;;0.70;0.70;;;10.10;99.90;;;;;;4972926;28;20070;-61
2022/04/06 05:56:44;;;;;;;1.10;1.00;;;10.10;99.90;;;;;;4972257;28;20039;-61
2022/04/06 05:59:09;;;;;;;0.70;0.70;;;10.20;99.90;;;;;;4972427;28;20034;-62
2022/04/06 06:01:35;;;;;;;0.47;0.47;;;10.20;99.90;;;;;;4966669;28;20464;-62
2022/04/06 06:04:01;;;;;;;0.03;0.03;;;10.20;99.90;;;;;;4972624;28;20069;-62
2022/04/06 06:06:27;;;;;;;0.20;0.20;;;10.20;99.90;;;;;;4971079;28;20482;-62
2022/04/06 06:08:52;;;;;;;0.45;0.45;;;10.20;99.90;;;;;;4972876;28;20081;-62
2022/04/06 06:11:18;;;;;;;0.00;0.00;;;10.20;99.90;;;;;;4972585;28;20509;-62
2022/04/06 06:13:44;;;;;;;0.08;0.08;;;10.20;99.90;;;;;;4972302;28;20039;-62
2022/04/06 06:16:10;;;;;;;1.45;0.57;;;10.30;99.90;;;;;;4970973;28;20031;-62
2022/04/06 06:18:35;;;;;;;1.45;0.52;;;10.30;99.90;;;;;;4972120;28;20026;-62
2022/04/06 06:21:01;;;;;;;0.15;0.15;;;10.30;99.90;;;;;;4972293;28;20035;-62
2022/04/06 06:23:27;;;;;;;0.52;0.52;;;10.30;99.90;;;;;;4987363;28;20394;-62
2022/04/06 06:25:53;;;;;;;0.13;0.13;;;10.30;99.90;;;;;;4972464;28;20046;-62
2022/04/06 06:28:19;;;;;;;0.20;0.20;;;10.40;99.90;;;;;;4972086;28;20031;-62
2022/04/06 06:30:45;;;;;;;0.10;0.10;;;10.50;99.90;;;;;;4972516;28;20471;-62
2022/04/06 06:33:10;;;;;;;1.08;0.75;;;10.50;99.90;;;;;;4972289;28;20031;-62
2022/04/06 06:35:36;;;;;;;0.25;0.25;;;10.50;99.90;;;;;;4972319;28;20541;-62
2022/04/06 06:38:02;;;;;;;0.10;0.10;;;10.60;99.90;;;;;;4971698;28;20479;-62
2022/04/06 06:40:28;;;;;;;1.65;1.55;;;10.60;99.90;;;;;;4972153;28;20061;-62
2022/04/06 06:42:54;;;;;;;3.55;1.50;;;10.60;99.90;;;;;;4970761;28;20039;-62
2022/04/06 06:45:21;;;;;;;2.55;1.15;;;10.70;99.90;;;;;;4970745;28;20048;-62
2022/04/06 06:47:47;;;;;;;0.88;0.88;;;10.70;99.90;;;;;;4954365;28;20085;-62
2022/04/06 06:50:16;;;;;;;1.38;1.27;;;10.70;99.90;;;;;;4984901;23;20101;-61
2022/04/06 06:52:42;;;;;;;0.20;0.20;;;10.70;99.90;;;;;;4971899;28;20043;-61
2022/04/06 06:55:09;;;;;;;0.17;0.17;;;10.70;99.90;;;;;;4971148;28;20046;-62
2022/04/06 06:57:35;;;;;;;0.10;0.10;;;10.80;99.90;;;;;;4971308;28;20501;-60
2022/04/06 07:00:02;;;;;;;3.58;0.50;;;10.90;99.90;;;;;;4972069;28;20031;-61
2022/04/06 07:02:27;;;;;;;0.00;0.00;;;10.90;99.90;;;;;;4971691;28;20062;-60
2022/04/06 07:04:53;;;;;;;0.13;0.13;;;11.00;99.90;;;;;;4971753;28;20081;-61
2022/04/06 07:07:19;;;;;;;0.00;0.00;;;11.00;99.90;;;;;;4970359;28;20041;-61
2022/04/06 07:09:44;;;;;;;3.08;1.45;;;11.00;99.90;;;;;;4971645;28;20498;-61
2022/04/06 07:12:10;;;;;;;0.00;0.00;;;11.10;99.90;;;;;;4970825;28;20034;-61
2022/04/06 07:14:37;;;;;;;0.63;0.63;;;11.20;99.90;;;;;;4970460;28;20085;-61
2022/04/06 07:17:03;;;;;;;0.00;0.00;;;11.30;99.90;;;;;;4989277;28;20702;-62
2022/04/06 07:19:29;;;;;;;0.15;0.15;;;11.30;99.90;;;;;;4989894;28;20044;-61
2022/04/06 07:21:55;;;;;;;0.00;0.00;;;11.20;99.90;;;;;;4990040;28;20109;-61
2022/04/06 07:24:21;;;;;;;0.20;0.20;;;11.20;99.90;;;;;;4991224;28;20030;-61
2022/04/06 07:26:47;;;;;;;1.05;0.47;;;11.30;99.90;;;;;;4990641;28;20030;-61
2022/04/06 07:29:15;;;;;;;0.22;0.22;;;11.30;99.90;;;;;;4990869;28;20045;-61
2022/04/06 07:31:42;;;;;;;0.10;0.10;;;11.30;99.90;;;;;;4990830;28;20473;-61
2022/04/06 07:34:09;;;;;;;2.72;0.70;;;11.40;99.90;;;;;;4989600;28;20061;-61
2022/04/06 07:36:35;;;;;;;3.50;0.70;;;11.50;99.90;;;;;;4991164;28;20475;-61
2022/04/06 07:39:03;;;;;;;0.00;0.00;;;11.50;99.90;;;;;;4989978;28;20030;-61
2022/04/06 07:41:33;;;;;;;0.10;0.10;;;11.60;99.90;;;;;;4989821;28;20089;-61
2022/04/06 07:44:06;;;;;;;0.10;0.10;;;11.60;99.90;;;;;;4990524;28;20038;-61
2022/04/06 07:46:33;;;;;;;1.13;1.05;;;11.70;99.90;;;;;;4989170;28;20133;-61
2022/04/06 07:48:59;;;;;;;1.95;0.47;;;11.70;99.90;;;;;;4990749;28;20046;-61
2022/04/06 07:51:24;;;;;;;0.00;0.00;;;11.70;99.90;;;;;;4990679;28;20030;-61
2022/04/06 07:53:50;;;;;;;1.00;0.95;;;11.90;99.90;;;;;;4981658;28;20598;-61
2022/04/06 07:56:16;;;;;;;0.10;0.10;;;11.90;99.90;;;;;;4971185;28;20069;-61
2022/04/06 07:58:42;;;;;;;0.00;0.00;;;11.90;99.90;;;;;;4969869;28;20031;-61
2022/04/06 08:01:08;;;;;;;0.00;0.00;;;11.90;99.90;;;;;;4973576;28;20437;-61
2022/04/06 08:03:36;;;;;;;0.00;0.00;;;12.00;99.90;;;;;;4974927;28;20030;-61
2022/04/06 08:06:03;;;;;;;0.00;0.00;;;12.00;99.90;;;;;;4975241;28;20438;-61
2022/04/06 08:08:29;;;;;;;0.05;0.05;;;12.00;99.90;;;;;;4973505;28;20509;-61
2022/04/06 08:10:54;;;;;;;0.00;0.00;;;12.00;99.90;;;;;;4973481;28;20039;-61
2022/04/06 08:13:20;;;;;;;0.10;0.10;;;12.00;99.90;;;;;;4975019;28;20034;-61
2022/04/06 08:15:46;;;;;;;0.00;0.00;;;12.00;99.90;;;;;;4983620;28;20030;-61
2022/04/06 08:18:11;;;;;;;3.42;1.55;;;12.20;99.90;;;;;;4994105;28;20527;-61
2022/04/06 08:20:37;;;;;;;0.45;0.45;;;12.20;99.90;;;;;;4994175;28;20026;-61
2022/04/06 08:23:03;;;;;;;1.13;1.05;;;12.20;99.90;;;;;;4994370;28;20102;-61
2022/04/06 08:25:29;;;;;;;0.10;0.10;;;12.20;99.90;;;;;;4992942;28;20030;-61
2022/04/06 08:27:55;;;;;;;0.00;0.00;;;12.20;99.90;;;;;;4993686;28;20077;-61
2022/04/06 08:30:23;;;;;;;0.63;0.60;;;12.40;99.90;;;;;;4992541;28;20026;-61
2022/04/06 08:32:50;;;;;;;7.68;2.35;;;12.40;99.90;;;;;;4992797;28;20081;-61
2022/04/06 08:35:17;;;;;;;0.10;0.10;;;12.40;99.90;;;;;;4992660;28;20026;-61
2022/04/06 08:37:43;;;;;;;0.10;0.10;;;12.50;99.90;;;;;;4993747;28;20022;-62
2022/04/06 08:40:10;;;;;;;0.00;0.00;;;12.40;99.90;;;;;;4992410;28;20585;-62
2022/04/06 08:42:37;;;;;;;0.00;0.00;;;12.20;99.90;;;;;;4993883;28;20121;-61
2022/04/06 08:45:06;;;;;;;0.00;0.00;;;12.20;99.90;;;;;;4992735;28;20037;-62
2022/04/06 08:47:32;;;;;;;0.32;0.32;;;12.20;99.90;;;;;;4993717;28;20088;-61
2022/04/06 08:50:00;;;;;;;0.00;0.00;;;12.30;99.90;;;;;;4993543;28;20034;-62
2022/04/06 08:52:26;;;;;;;0.00;0.00;;;12.20;99.90;;;;;;4992679;28;20027;-61
2022/04/06 08:54:53;;;;;;;0.00;0.00;;;12.30;99.90;;;;;;4975933;28;20085;-62
2022/04/06 08:57:19;;;;;;;0.43;0.43;;;12.20;99.90;;;;;;4993339;28;20438;-61
2022/04/06 08:59:48;;;;;;;0.20;0.20;;;12.20;99.90;;;;;;4992281;28;20069;-62
2022/04/06 09:02:21;;;;;;;0.03;0.03;;;12.20;99.90;;;;;;4992126;28;20545;-61
2022/04/06 09:04:55;;;;;;;0.00;0.00;;;12.20;99.90;;;;;;4993468;28;20081;-61
2022/04/06 09:07:23;;;;;;;0.47;0.47;;;12.20;99.90;;;;;;4992083;28;20113;-61
2022/04/06 09:09:51;;;;;;;0.38;0.38;;;12.10;99.90;;;;;;4992071;28;20065;-61
2022/04/06 09:12:20;;;;;;;0.00;0.00;;;12.10;99.90;;;;;;4990936;28;20030;-61
2022/04/06 09:14:47;;;;;;;1.90;0.90;;;12.00;99.90;;;;;;4991836;28;20474;-61
2022/04/06 09:17:21;;;;;;;0.13;0.13;;;12.10;99.90;;;;;;4992815;28;20058;-61
2022/04/06 09:19:49;;;;;;;1.70;1.45;;;12.10;99.90;;;;;;4992783;28;20062;-61
2022/04/06 09:22:15;;;;;;;7.00;1.75;;;12.20;99.90;;;;;;4991713;28;20030;-61
2022/04/06 09:24:41;;;;;;;0.20;0.20;;;12.40;99.90;;;;;;4993187;28;20356;-62
2022/04/06 09:27:07;;;;;;;0.00;0.00;;;12.60;99.90;;;;;;4991499;28;20110;-61
2022/04/06 09:29:35;;;;;;;0.10;0.10;;;12.70;99.90;;;;;;4991792;28;20034;-60
2022/04/06 09:32:10;;;;;;;0.40;0.40;;;12.80;99.90;;;;;;4991600;28;20386;-61
2022/04/06 09:34:37;;;;;;;0.08;0.08;;;12.90;99.90;;;;;;4992827;28;20417;-61
2022/04/06 09:37:31;;;;;;;1.08;0.55;;;13.00;99.90;;;;;;4991544;28;20524;-61
2022/04/06 09:40:08;;;;;;;0.35;0.35;;;13.30;99.90;;;;;;4975171;28;20466;-61
2022/04/06 09:42:34;;;;;;;0.00;0.00;;;13.40;99.90;;;;;;4992540;28;20049;-61
2022/04/06 09:47:53;;;;;;;0.05;0.05;;;13.60;99.90;;;;;;4992205;28;20036;-61
2022/04/06 09:50:28;;;;;;;0.00;0.00;;;13.50;99.90;;;;;;4992252;28;20128;-62
2022/04/06 09:53:00;;;;;;;0.00;0.00;;;13.50;99.90;;;;;;4991434;28;20065;-62
2022/04/06 09:55:26;;;;;;;0.00;0.00;;;13.50;99.90;;;;;;4972092;28;20031;-61
2022/04/06 09:57:53;;;;;;;1.75;0.80;;;13.70;99.60;;;;;;4971106;28;20026;-61
2022/04/06 10:00:25;;;;;;;1.30;0.85;;;13.80;99.50;;;;;;4987791;28;20031;-62
2022/04/06 10:03:10;;;;;;;0.32;0.03;;;13.50;99.90;;;;;;4971738;28;20089;-61
2022/04/06 10:05:38;;;;;;;2.05;1.33;;;13.40;99.90;;;;;;4971426;28;20127;-62
2022/04/06 10:08:07;;;;;;;0.10;0.10;;;13.30;99.90;;;;;;4972559;28;20038;-62
2022/04/06 10:10:35;;;;;;;0.45;0.45;;;13.40;99.90;;;;;;4972494;28;20097;-61
2022/04/06 10:13:04;;;;;;;0.00;0.00;;;13.30;99.90;;;;;;4955663;28;20038;-61
2022/04/06 10:15:31;;;;;;;0.00;0.00;;;13.10;99.90;;;;;;4978160;28;20026;-62
2022/04/06 10:17:57;;;;;;;0.30;0.30;;;13.10;99.90;;;;;;4974343;28;20398;-62
2022/04/06 10:20:43;;;;;;;0.00;0.00;;;13.20;99.90;;;;;;4991672;28;20026;-62
2022/04/06 10:23:39;;;;;;;0.00;0.00;;;13.30;99.90;;;;;;4990242;28;20042;-61
2022/04/06 10:26:31;;;;;;;0.40;0.40;;;13.30;99.90;;;;;;4991665;28;20030;-61
2022/04/06 10:28:57;;;;;;;0.08;0.08;;;13.10;99.90;;;;;;4991796;28;20034;-62
2022/04/06 10:31:28;;;;;;;0.73;0.73;;;13.10;99.90;;;;;;4990322;28;20049;-61
2022/04/06 10:34:36;;;;;;;2.30;1.33;;;13.20;99.90;;;;;;4991737;28;20031;-61
2022/04/06 10:37:11;;;;;;;0.00;0.00;;;13.70;99.90;;;;;;4990061;28;20518;-62
2022/04/06 10:39:58;;;;;;;0.00;0.00;;;14.10;99.90;;;;;;4991675;28;20053;-61
2022/04/06 10:42:37;;;;;;;0.20;0.20;;;14.10;99.90;;;;;;4991762;28;20030;-61
2022/04/06 10:45:24;;;;;;;0.00;0.00;;;13.80;99.90;;;;;;4991327;28;20096;-62
2022/04/06 10:48:15;;;;;;;0.00;0.00;;;13.60;99.90;;;;;;4989786;28;20477;-61
2022/04/06 10:50:49;;;;;;;0.10;0.10;;;13.30;99.90;;;;;;4989977;28;20398;-61
2022/04/06 10:53:21;;;;;;;0.00;0.00;;;13.20;99.90;;;;;;4991401;28;20121;-62
2022/04/06 10:56:11;;;;;;;0.00;0.00;;;13.20;99.90;;;;;;4991222;28;20034;-61
2022/04/06 10:58:55;;;;;;;0.28;0.28;;;13.30;99.90;;;;;;4990363;28;20474;-61
2022/04/06 11:01:32;;;;;;;0.00;0.00;;;13.60;99.90;;;;;;4991325;28;20045;-62
2022/04/06 11:04:15;;;;;;;0.00;0.00;;;13.80;99.90;;;;;;4989991;28;20089;-61
2022/04/06 11:06:40;;;;;;;0.00;0.00;;;13.70;99.60;;;;;;4990971;28;20103;-61
2022/04/06 11:12:34;;;;;;;0.00;0.00;;;13.50;99.90;;;;;;4991120;28;20043;-61
2022/04/06 11:15:00;;;;;;;;;;;13.50;99.90;;;;;;4990212;28;20050;-62
2022/04/06 11:17:48;;;;;;;0.00;0.00;;;13.50;99.90;;;;;;4989304;28;19910;-61
2022/04/06 11:20:18;;;;;;;0.00;0.00;;;13.60;99.90;;;;;;4990895;28;20023;-61
2022/04/06 11:22:53;;;;;;;0.10;0.10;;;13.70;99.90;;;;;;4989992;28;20053;-61
2022/04/06 11:25:22;;;;;;;13.48;1.88;;;13.90;99.90;;;;;;4990951;28;20499;-61
2022/04/06 11:27:49;;;;;;;0.13;0.10;;;13.90;99.90;;;;;;4989570;28;20053;-61
2022/04/06 11:30:18;;;;;;;0.30;0.30;;;13.60;99.90;;;;;;4989735;28;20026;-61
2022/04/06 11:32:51;;;;;;;0.20;0.13;;;13.50;99.90;;;;;;4989375;28;20034;-61
2022/04/06 11:35:17;;;;;;;0.20;0.20;;;13.60;99.90;;;;;;4990321;28;20022;-61
2022/04/06 11:37:48;;;;;;;0.10;0.10;;;13.80;99.90;;;;;;4994416;28;20047;-61
2022/04/06 11:40:28;;;;;;;0.00;0.00;;;13.70;99.90;;;;;;4994588;28;20121;-62
2022/04/06 11:42:57;;;;;;;0.10;0.10;;;13.80;99.70;;;;;;4993895;28;20038;-62
2022/04/06 11:45:30;;;;;;;0.08;0.08;;;13.80;99.90;;;;;;5000080;28;20030;-61
2022/04/06 11:48:02;;;;;;;0.65;0.65;;;14.00;99.10;;;;;;4974734;28;20027;-62
2022/04/06 11:50:38;;;;;;;1.25;0.90;;;14.20;99.10;;;;;;4975068;28;20042;-62
2022/04/06 11:53:17;;;;;;;0.00;0.00;;;13.90;99.40;;;;;;4975553;28;20042;-62
2022/04/06 11:55:53;;;;;;;0.40;0.40;;;14.00;99.40;;;;;;4973538;28;20054;-62
2022/04/06 11:58:39;;;;;;;0.63;0.63;;;14.10;99.30;;;;;;4974437;28;20026;-62
2022/04/06 12:01:15;;;;;;;0.52;0.52;;;14.20;98.90;;;;;;4975037;28;20035;-61
2022/04/06 12:03:43;;;;;;;0.00;0.00;;;14.00;98.80;;;;;;4973583;28;20390;-62
2022/04/06 12:06:12;;;;;;;0.08;0.08;;;14.10;99.20;;;;;;4975046;28;20394;-63
2022/04/06 12:08:40;;;;;;;0.00;0.00;;;14.20;99.00;;;;;;4974598;28;20109;-62
2022/04/06 12:11:06;;;;;;;0.00;0.00;;;13.90;99.10;;;;;;4973918;28;20583;-61
2022/04/06 12:13:40;;;;;;;0.00;0.00;;;14.00;98.60;;;;;;4973760;28;20023;-61
2022/04/06 12:16:07;;;;;;;0.00;0.00;;;14.40;98.60;;;;;;4985093;28;20034;-61
2022/04/06 12:18:33;;;;;;;0.10;0.10;;;14.50;96.60;;;;;;4992630;28;20023;-61
2022/04/06 12:21:00;;;;;;;1.25;0.80;;;14.20;96.70;;;;;;4992539;28;20117;-61
2022/04/06 12:23:26;;;;;;;0.00;0.00;;;14.10;96.90;;;;;;4992881;28;20038;-61
2022/04/06 12:25:56;;;;;;;0.20;0.20;;;13.80;96.80;;;;;;4992838;28;20057;-61
2022/04/06 12:28:27;;;;;;;0.20;0.17;;;13.50;97.60;;;;;;4992280;28;20508;-61
2022/04/06 12:30:52;;;;;;;;;;;13.70;98.80;;;;;;4994111;28;20117;-61
2022/04/06 12:33:50;;;;;;;0.00;0.00;;;13.90;98.80;;;;;;4994221;28;20024;-61
2022/04/06 12:36:27;;;;;;;0.00;0.00;;;14.40;97.90;;;;;;4992518;28;20034;-61
2022/04/06 12:39:13;;;;;;;0.00;0.00;;;14.70;96.70;;;;;;4992651;28;20522;-61
2022/04/06 12:41:59;;;;;;;0.10;0.10;;;14.30;97.30;;;;;;4993586;28;20065;-61
2022/04/06 12:44:31;;;;;;;0.00;0.00;;;14.00;97.90;;;;;;4993704;28;20030;-61
2022/04/06 12:46:58;;;;;;;1.08;1.00;;;14.20;97.60;;;;;;4993239;28;20034;-61
2022/04/06 12:49:27;;;;;;;0.00;0.00;;;14.40;96.80;;;;;;4992125;28;20049;-62
2022/04/06 12:52:24;;;;;;;1.30;1.20;;;14.60;96.40;;;;;;4994530;23;20104;-63
2022/04/06 12:54:53;;;;;;;0.05;0.05;;;14.40;97.40;;;;;;5004526;28;20096;-63
2022/04/06 12:57:27;;;;;;;0.00;0.00;;;14.20;97.10;;;;;;4973747;28;20459;-63
2022/04/06 13:00:10;;;;;;;0.20;0.10;;;14.10;96.90;;;;;;4974018;28;20590;-63
2022/04/06 13:02:50;;;;;;;0.00;0.00;;;14.30;96.60;;;;;;4972503;28;20031;-63
2022/04/06 13:05:21;;;;;;;3.50;1.65;;;15.20;95.90;;;;;;4973709;28;20054;-63